createdAt,value
2023-05-05T00:00:55.006Z,34.52
2023-05-05T00:01:55.087Z,34.51
2023-05-05T00:02:55.131Z,34.48
2023-05-05T00:03:55.208Z,34.48
2023-05-05T00:04:55.172Z,34.47
2023-05-05T00:05:55.223Z,34.46
2023-05-05T00:06:55.257Z,34.47
2023-05-05T00:07:55.289Z,34.47
2023-05-05T00:08:55.340Z,34.43
2023-05-05T00:09:55.423Z,34.43
2023-05-05T00:10:55.480Z,34.43
2023-05-05T00:11:55.489Z,34.43
2023-05-05T00:12:55.555Z,34.46
2023-05-05T00:13:55.579Z,34.45
2023-05-05T00:14:55.618Z,34.42
2023-05-05T00:15:55.670Z,34.45
2023-05-05T00:16:55.744Z,34.43
2023-05-05T00:17:55.831Z,34.43
2023-05-05T00:18:55.825Z,34.43
2023-05-05T00:19:55.868Z,34.44
2023-05-05T00:20:55.912Z,34.42
2023-05-05T00:21:55.966Z,34.44
2023-05-05T00:22:56.020Z,34.43
2023-05-05T00:23:56.077Z,34.44
2023-05-05T00:24:56.133Z,34.44
2023-05-05T00:25:56.165Z,34.43
2023-05-05T00:26:56.256Z,34.46
2023-05-05T00:27:56.280Z,34.45
2023-05-05T00:28:56.354Z,34.44
2023-05-05T00:29:56.441Z,34.44
2023-05-05T00:30:56.457Z,34.44
2023-05-05T00:31:56.487Z,34.46
2023-05-05T00:32:56.603Z,34.45
2023-05-05T00:33:56.592Z,34.46
2023-05-05T00:34:57.579Z,34.44
2023-05-05T00:35:56.703Z,34.43
2023-05-05T00:36:56.770Z,34.46
2023-05-05T00:37:56.807Z,34.44
2023-05-05T00:38:56.858Z,34.45
2023-05-05T00:39:56.913Z,34.45
2023-05-05T00:40:56.972Z,34.46
2023-05-05T00:41:57.025Z,34.45
2023-05-05T00:42:57.108Z,34.44
2023-05-05T00:43:57.151Z,34.45
2023-05-05T00:44:57.189Z,34.46
2023-05-05T00:45:57.309Z,34.45
2023-05-05T00:46:57.296Z,34.45
2023-05-05T00:47:57.388Z,34.45
2023-05-05T00:48:57.430Z,34.46
2023-05-05T00:49:57.458Z,34.49
2023-05-05T00:50:57.504Z,34.47
2023-05-05T00:51:57.553Z,34.46
2023-05-05T00:52:57.626Z,34.43
2023-05-05T00:53:57.667Z,34.44
2023-05-05T00:54:57.726Z,34.46
2023-05-05T00:55:57.780Z,34.47
2023-05-05T00:56:57.826Z,34.46
2023-05-05T00:57:57.917Z,34.47
2023-05-05T00:58:57.962Z,34.47
2023-05-05T00:59:57.998Z,34.45
2023-05-05T01:00:58.427Z,34.46
2023-05-05T01:01:58.538Z,34.49
2023-05-05T01:02:58.546Z,34.45
2023-05-05T01:03:58.589Z,34.47
2023-05-05T01:04:58.501Z,34.47
2023-05-05T01:05:58.464Z,34.48
2023-05-05T01:06:58.454Z,34.46
2023-05-05T01:07:58.456Z,34.50
2023-05-05T01:08:58.522Z,34.45
2023-05-05T01:10:17.891Z,34.49
2023-05-05T01:10:58.577Z,34.50
2023-05-05T01:11:58.551Z,34.49
2023-05-05T01:12:58.560Z,34.48
2023-05-05T01:13:58.533Z,34.48
2023-05-05T01:14:58.563Z,34.47
2023-05-05T01:15:58.614Z,34.49
2023-05-05T01:16:58.529Z,34.50
2023-05-05T01:17:58.558Z,34.48
2023-05-05T01:18:58.497Z,34.50
2023-05-05T01:19:58.490Z,34.49
2023-05-05T01:20:58.497Z,34.48
2023-05-05T01:21:58.485Z,34.49
2023-05-05T01:22:58.494Z,34.50
2023-05-05T01:23:58.551Z,34.48
2023-05-05T01:24:58.610Z,34.49
2023-05-05T01:25:58.670Z,34.48
2023-05-05T01:26:58.724Z,34.49
2023-05-05T01:27:58.780Z,34.49
2023-05-05T01:28:58.859Z,34.50
2023-05-05T01:29:58.914Z,34.48
2023-05-05T01:30:58.996Z,34.49
2023-05-05T01:31:59.084Z,34.48
2023-05-05T01:32:59.480Z,34.49
2023-05-05T01:33:59.470Z,34.51
2023-05-05T01:34:59.485Z,34.48
2023-05-05T01:35:59.476Z,34.50
2023-05-05T01:36:59.478Z,34.51
2023-05-05T01:37:59.481Z,34.50
2023-05-05T01:38:59.478Z,34.49
2023-05-05T01:39:59.488Z,34.52
2023-05-05T01:40:59.528Z,34.51
2023-05-05T01:41:59.596Z,34.51
2023-05-05T01:42:59.673Z,34.50
2023-05-05T01:43:59.713Z,34.50
2023-05-05T01:44:59.776Z,34.51
2023-05-05T01:45:59.899Z,34.50
2023-05-05T01:46:59.910Z,34.50
2023-05-05T01:47:59.996Z,34.53
2023-05-05T01:49:00.021Z,34.51
2023-05-05T01:50:00.104Z,34.52
2023-05-05T01:51:00.619Z,34.54
2023-05-05T01:52:00.211Z,34.52
2023-05-05T01:53:00.240Z,34.53
2023-05-05T01:54:00.368Z,34.52
2023-05-05T01:55:00.380Z,34.51
2023-05-05T01:56:00.439Z,34.52
2023-05-05T01:57:00.482Z,34.51
2023-05-05T01:58:00.556Z,34.51
2023-05-05T01:59:00.588Z,34.54
2023-05-05T02:00:00.643Z,34.51
2023-05-05T02:01:00.746Z,34.51
2023-05-05T02:02:00.864Z,34.53
2023-05-05T02:03:00.915Z,34.51
2023-05-05T02:04:00.882Z,34.53
2023-05-05T02:05:00.958Z,34.53
2023-05-05T02:06:01.003Z,34.52
2023-05-05T02:07:01.061Z,34.52
2023-05-05T02:08:01.106Z,34.53
2023-05-05T02:09:01.164Z,34.52
2023-05-05T02:10:01.216Z,34.51
2023-05-05T02:11:01.263Z,34.52
2023-05-05T02:12:01.309Z,34.54
2023-05-05T02:13:01.421Z,34.52
2023-05-05T02:14:01.479Z,34.53
2023-05-05T02:15:01.479Z,34.55
2023-05-05T02:16:01.573Z,34.53
2023-05-05T02:17:01.612Z,34.54
2023-05-05T02:18:01.737Z,34.54
2023-05-05T02:19:01.756Z,34.54
2023-05-05T02:20:01.792Z,34.53
2023-05-05T02:21:01.865Z,34.53
2023-05-05T02:22:01.899Z,34.53
2023-05-05T02:23:01.952Z,34.55
2023-05-05T02:24:02.023Z,34.55
2023-05-05T02:25:02.070Z,34.54
2023-05-05T02:26:02.129Z,34.53
2023-05-05T02:27:02.176Z,34.54
2023-05-05T02:28:02.229Z,34.54
2023-05-05T02:29:02.285Z,34.52
2023-05-05T02:30:02.341Z,34.56
2023-05-05T02:31:02.424Z,34.53
2023-05-05T02:32:02.462Z,34.55
2023-05-05T02:33:02.549Z,34.53
2023-05-05T02:34:02.576Z,34.54
2023-05-05T02:35:02.666Z,34.57
2023-05-05T02:36:02.691Z,34.55
2023-05-05T02:37:02.753Z,34.56
2023-05-05T02:38:02.914Z,34.54
2023-05-05T02:39:02.874Z,34.54
2023-05-05T02:40:02.921Z,34.54
2023-05-05T02:41:02.972Z,34.55
2023-05-05T02:42:03.025Z,34.53
2023-05-05T02:43:03.129Z,34.55
2023-05-05T02:44:03.137Z,34.56
2023-05-05T02:45:03.200Z,34.55
2023-05-05T02:46:03.265Z,34.55
2023-05-05T02:47:03.314Z,34.54
2023-05-05T02:48:03.403Z,34.56
2023-05-05T02:49:03.442Z,34.56
2023-05-05T02:50:03.510Z,34.56
2023-05-05T02:51:03.578Z,34.58
2023-05-05T02:52:03.604Z,34.56
2023-05-05T02:53:03.651Z,34.56
2023-05-05T02:54:03.709Z,34.55
2023-05-05T02:55:03.759Z,34.55
2023-05-05T02:56:03.789Z,34.56
2023-05-05T02:57:03.810Z,34.54
2023-05-05T02:58:03.868Z,34.57
2023-05-05T02:59:03.893Z,34.57
2023-05-05T03:00:03.920Z,34.56
2023-05-05T03:01:04.108Z,34.57
2023-05-05T03:02:04.005Z,34.58
2023-05-05T03:03:04.110Z,34.57
2023-05-05T03:04:04.072Z,34.55
2023-05-05T03:05:04.481Z,34.58
2023-05-05T03:06:04.535Z,34.57
2023-05-05T03:07:04.555Z,34.58
2023-05-05T03:08:04.535Z,34.57
2023-05-05T03:09:04.527Z,34.54
2023-05-05T03:10:04.527Z,34.54
2023-05-05T03:11:04.528Z,34.54
2023-05-05T03:12:04.552Z,34.57
2023-05-05T03:13:04.571Z,34.54
2023-05-05T03:14:04.536Z,34.57
2023-05-05T03:15:04.545Z,34.56
2023-05-05T03:16:04.585Z,34.56
2023-05-05T03:17:04.590Z,34.56
2023-05-05T03:18:04.648Z,34.57
2023-05-05T03:19:04.661Z,34.57
2023-05-05T03:20:04.730Z,34.58
2023-05-05T03:21:04.695Z,34.55
2023-05-05T03:22:04.718Z,34.55
2023-05-05T03:23:04.773Z,34.55
2023-05-05T03:24:04.789Z,34.57
2023-05-05T03:25:04.809Z,34.55
2023-05-05T03:26:04.819Z,34.56
2023-05-05T03:27:04.865Z,34.55
2023-05-05T03:28:04.890Z,34.56
2023-05-05T03:29:04.934Z,34.57
2023-05-05T03:30:04.999Z,34.55
2023-05-05T03:31:04.999Z,34.59
2023-05-05T03:32:05.045Z,34.59
2023-05-05T03:33:05.087Z,34.55
2023-05-05T03:34:05.023Z,34.55
2023-05-05T03:35:05.016Z,34.56
2023-05-05T03:36:05.016Z,34.54
2023-05-05T03:37:05.017Z,34.58
2023-05-05T03:38:05.029Z,34.60
2023-05-05T03:39:05.084Z,34.60
2023-05-05T03:40:05.228Z,34.58
2023-05-05T03:41:05.078Z,34.59
2023-05-05T03:42:05.173Z,34.59
2023-05-05T03:43:05.129Z,34.61
2023-05-05T03:44:05.116Z,34.60
2023-05-05T03:45:05.118Z,34.58
2023-05-05T03:46:05.570Z,34.58
2023-05-05T03:47:05.549Z,34.57
2023-05-05T03:48:05.562Z,34.59
2023-05-05T03:49:05.548Z,34.57
2023-05-05T03:50:05.722Z,34.56
2023-05-05T03:51:05.552Z,34.59
2023-05-05T03:52:05.550Z,34.56
2023-05-05T03:53:05.565Z,34.57
2023-05-05T03:54:05.550Z,34.59
2023-05-05T03:55:05.587Z,34.60
2023-05-05T03:56:05.562Z,34.57
2023-05-05T03:57:05.565Z,34.58
2023-05-05T03:58:05.585Z,34.58
2023-05-05T03:59:05.550Z,34.55
2023-05-05T04:00:05.605Z,34.57
2023-05-05T04:01:05.572Z,34.56
2023-05-05T04:02:05.578Z,34.57
2023-05-05T04:03:05.754Z,34.56
2023-05-05T04:04:05.569Z,34.57
2023-05-05T04:05:05.561Z,34.56
2023-05-05T04:06:05.573Z,34.57
2023-05-05T04:07:05.604Z,34.57
2023-05-05T04:08:05.624Z,34.58
2023-05-05T04:09:05.627Z,34.56
2023-05-05T04:10:05.787Z,34.56
2023-05-05T04:11:05.689Z,34.56
2023-05-05T04:12:05.674Z,34.55
2023-05-05T04:13:05.735Z,34.58
2023-05-05T04:14:05.689Z,34.57
2023-05-05T04:15:05.692Z,34.58
2023-05-05T04:16:05.701Z,34.59
2023-05-05T04:17:05.706Z,34.58
2023-05-05T04:18:05.760Z,34.58
2023-05-05T04:19:05.708Z,34.58
2023-05-05T04:20:05.815Z,34.57
2023-05-05T04:21:05.744Z,34.58
2023-05-05T04:22:05.735Z,34.55
2023-05-05T04:23:05.764Z,34.56
2023-05-05T04:24:05.740Z,34.58
2023-05-05T04:25:05.756Z,34.58
2023-05-05T04:26:05.758Z,34.55
2023-05-05T04:27:05.790Z,34.58
2023-05-05T04:28:05.767Z,34.57
2023-05-05T04:29:05.770Z,34.57
2023-05-05T04:30:05.876Z,34.57
2023-05-05T04:31:05.845Z,34.55
2023-05-05T04:32:05.780Z,34.54
2023-05-05T04:33:05.781Z,34.54
2023-05-05T04:34:05.788Z,34.54
2023-05-05T04:35:05.780Z,34.55
2023-05-05T04:36:05.789Z,34.53
2023-05-05T04:37:05.784Z,34.53
2023-05-05T04:38:05.776Z,34.54
2023-05-05T04:39:05.856Z,34.55
2023-05-05T04:40:05.919Z,34.55
2023-05-05T04:41:05.784Z,34.55
2023-05-05T04:42:05.786Z,34.53
2023-05-05T04:43:05.808Z,34.53
2023-05-05T04:44:05.812Z,34.53
2023-05-05T04:45:05.808Z,34.54
2023-05-05T04:46:05.887Z,34.53
2023-05-05T04:47:05.841Z,34.52
2023-05-05T04:48:05.940Z,34.49
2023-05-05T04:49:05.833Z,34.52
2023-05-05T04:50:05.911Z,34.52
2023-05-05T04:51:05.856Z,34.50
2023-05-05T04:52:05.872Z,34.50
2023-05-05T04:53:05.884Z,34.51
2023-05-05T04:54:05.888Z,34.48
2023-05-05T04:55:05.889Z,34.47
2023-05-05T04:56:05.912Z,34.50
2023-05-05T04:57:05.899Z,34.49
2023-05-05T04:58:05.907Z,34.49
2023-05-05T04:59:06.035Z,34.47
2023-05-05T05:00:06.124Z,34.49
2023-05-05T05:01:05.924Z,34.48
2023-05-05T05:02:05.969Z,34.47
2023-05-05T05:03:06.025Z,34.46
2023-05-05T05:04:06.025Z,34.48
2023-05-05T05:05:06.683Z,34.45
2023-05-05T05:06:06.045Z,34.47
2023-05-05T05:07:06.074Z,34.46
2023-05-05T05:08:06.100Z,34.44
2023-05-05T05:09:06.154Z,34.46
2023-05-05T05:10:06.347Z,34.45
2023-05-05T05:11:06.200Z,34.43
2023-05-05T05:12:06.245Z,34.46
2023-05-05T05:13:06.309Z,34.45
2023-05-05T05:14:06.314Z,34.42
2023-05-05T05:15:06.395Z,34.44
2023-05-05T05:16:06.410Z,34.46
2023-05-05T05:17:06.420Z,34.47
2023-05-05T05:18:06.776Z,34.42
2023-05-05T05:19:06.526Z,34.40
2023-05-05T05:20:06.779Z,34.54
2023-05-05T05:21:06.701Z,34.51
2023-05-05T05:22:06.648Z,34.44
2023-05-05T05:23:06.683Z,34.46
2023-05-05T05:24:06.743Z,34.49
2023-05-05T05:25:06.786Z,34.50
2023-05-05T05:26:06.837Z,34.49
2023-05-05T05:27:09.668Z,34.43
2023-05-05T05:28:10.641Z,34.48
2023-05-05T05:29:06.894Z,34.47
2023-05-05T05:30:07.225Z,34.51
2023-05-05T05:31:06.929Z,34.58
2023-05-05T05:32:07.021Z,34.60
2023-05-05T05:33:06.962Z,34.67
2023-05-05T05:34:06.874Z,34.74
2023-05-05T05:35:06.924Z,34.78
2023-05-05T05:36:06.977Z,34.83
2023-05-05T05:37:07.042Z,34.87
2023-05-05T05:38:07.090Z,34.91
2023-05-05T05:39:07.227Z,34.99
2023-05-05T05:40:07.328Z,35.02
2023-05-05T05:41:07.693Z,35.05
2023-05-05T05:42:07.287Z,35.11
2023-05-05T05:43:07.349Z,35.15
2023-05-05T05:44:07.410Z,35.15
2023-05-05T05:45:07.430Z,35.18
2023-05-05T05:46:09.389Z,35.19
2023-05-05T05:47:07.511Z,35.23
2023-05-05T05:48:07.506Z,35.27
2023-05-05T05:49:07.457Z,35.29
2023-05-05T05:50:07.854Z,35.33
2023-05-05T05:51:07.764Z,35.39
2023-05-05T05:52:07.442Z,35.38
2023-05-05T05:53:07.737Z,35.43
2023-05-05T05:54:09.616Z,35.49
2023-05-05T05:55:10.662Z,35.51
2023-05-05T05:56:10.606Z,35.52
2023-05-05T05:57:07.735Z,35.56
2023-05-05T05:58:08.422Z,35.56
2023-05-05T05:59:07.414Z,35.51
2023-05-05T06:00:07.623Z,35.48
2023-05-05T06:01:07.408Z,35.44
2023-05-05T06:02:11.010Z,35.42
2023-05-05T06:03:08.045Z,35.42
2023-05-05T06:04:23.443Z,35.39
2023-05-05T06:07:14.744Z,35.40
2023-05-05T06:08:10.539Z,35.40
2023-05-05T06:09:07.704Z,35.39
2023-05-05T06:10:22.861Z,35.39
2023-05-05T06:11:07.315Z,35.39
2023-05-05T06:12:07.728Z,35.37
2023-05-05T06:13:08.364Z,35.37
2023-05-05T06:15:39.097Z,35.36
2023-05-05T06:16:10.478Z,35.36
2023-05-05T06:18:07.322Z,35.35
2023-05-05T06:19:07.239Z,35.29
2023-05-05T06:20:10.478Z,35.32
2023-05-05T06:21:07.242Z,35.30
2023-05-05T06:22:07.260Z,35.30
2023-05-05T06:23:07.210Z,35.30
2023-05-05T06:24:07.229Z,35.32
2023-05-05T06:25:07.206Z,35.31
2023-05-05T06:26:08.217Z,35.30
2023-05-05T06:27:07.243Z,35.29
2023-05-05T06:28:07.231Z,35.32
2023-05-05T06:29:12.205Z,35.29
2023-05-05T06:30:07.447Z,35.29
2023-05-05T06:31:07.199Z,35.29
2023-05-05T06:32:07.203Z,35.28
2023-05-05T06:33:07.225Z,35.29
2023-05-05T06:34:07.211Z,35.27
2023-05-05T06:35:07.440Z,35.27
2023-05-05T06:36:07.167Z,35.28
2023-05-05T06:37:08.169Z,35.26
2023-05-05T06:38:38.949Z,35.25
2023-05-05T06:39:07.249Z,35.26
2023-05-05T06:40:07.327Z,35.24
2023-05-05T06:41:07.143Z,35.26
2023-05-05T06:42:07.125Z,35.26
2023-05-05T06:43:08.147Z,35.25
2023-05-05T06:44:07.246Z,35.24
2023-05-05T06:45:07.128Z,35.23
2023-05-05T06:46:07.067Z,35.25
2023-05-05T06:47:08.248Z,35.23
2023-05-05T06:48:07.104Z,35.25
2023-05-05T06:49:07.233Z,35.23
2023-05-05T06:50:07.531Z,35.22
2023-05-05T06:51:07.133Z,35.22
2023-05-05T06:52:07.192Z,35.20
2023-05-05T06:53:07.261Z,35.22
2023-05-05T12:18:05.188Z,35.02
2023-05-05T12:19:06.135Z,34.92
2023-05-05T12:20:06.334Z,34.84
2023-05-05T12:21:06.107Z,34.81
2023-05-05T12:22:06.105Z,34.81
2023-05-05T12:23:06.103Z,34.80
2023-05-05T12:24:06.097Z,34.78
2023-05-05T12:25:06.088Z,34.80
2023-05-05T12:26:06.108Z,34.79
2023-05-05T12:27:06.088Z,34.77
2023-05-05T12:28:06.083Z,34.76
2023-05-05T12:29:06.057Z,34.77
2023-05-05T12:30:06.165Z,34.77
2023-05-05T12:31:06.117Z,34.81
2023-05-05T12:32:06.103Z,34.81
2023-05-05T12:33:06.094Z,34.79
2023-05-05T12:34:06.184Z,34.80
2023-05-05T12:35:06.026Z,34.80
2023-05-05T12:36:06.018Z,34.81
2023-05-05T12:37:06.041Z,34.83
2023-05-05T12:38:06.038Z,34.82
2023-05-05T12:39:05.995Z,34.84
2023-05-05T12:40:06.298Z,34.83
2023-05-05T12:41:05.982Z,34.84
2023-05-05T12:42:05.990Z,34.86
2023-05-05T12:43:05.971Z,34.87
2023-05-05T12:44:06.316Z,34.87
2023-05-05T12:45:05.955Z,34.88
2023-05-05T12:46:06.094Z,34.90
2023-05-05T12:47:05.972Z,34.88
2023-05-05T12:48:06.066Z,34.90
2023-05-05T12:49:05.933Z,34.91
2023-05-05T12:50:06.563Z,34.90
2023-05-05T12:51:05.945Z,34.93
2023-05-05T12:52:05.902Z,34.93
2023-05-05T12:53:05.895Z,34.92
2023-05-05T12:54:05.892Z,34.94
2023-05-05T12:55:06.481Z,34.95
2023-05-05T12:56:05.876Z,34.96
2023-05-05T12:57:05.867Z,34.91
2023-05-05T12:58:05.865Z,34.94
2023-05-05T12:59:05.874Z,34.96
2023-05-05T13:00:05.963Z,34.99
2023-05-05T13:01:05.875Z,34.98
2023-05-05T13:02:05.849Z,34.99
2023-05-05T13:03:05.910Z,35.00
2023-05-05T13:04:05.823Z,34.98
2023-05-05T13:05:05.896Z,35.00
2023-05-05T13:06:05.945Z,35.02
2023-05-05T13:07:05.797Z,35.03
2023-05-05T13:08:05.816Z,35.05
2023-05-05T13:09:05.862Z,35.02
2023-05-05T13:10:06.344Z,35.05
2023-05-05T13:11:05.849Z,35.02
2023-05-05T13:12:05.859Z,35.01
2023-05-05T13:13:06.391Z,35.06
2023-05-05T13:14:05.911Z,35.04
2023-05-05T13:15:06.042Z,35.08
2023-05-05T13:16:05.961Z,35.08
2023-05-05T13:17:05.920Z,35.10
2023-05-05T13:18:05.949Z,35.12
2023-05-05T13:19:05.914Z,35.10
2023-05-05T13:20:05.954Z,35.13
2023-05-05T13:21:05.935Z,35.11
2023-05-05T13:22:06.069Z,35.13
2023-05-05T13:23:05.969Z,35.16
2023-05-05T13:24:21.275Z,35.14
2023-05-05T13:25:06.335Z,35.15
2023-05-05T13:26:05.980Z,35.17
2023-05-05T13:27:05.949Z,35.16
2023-05-05T13:28:05.941Z,35.16
2023-05-05T13:29:05.939Z,35.17
2023-05-05T13:30:05.940Z,35.18
2023-05-05T13:31:05.934Z,35.14
2023-05-05T13:32:05.913Z,35.19
2023-05-05T13:33:05.949Z,35.19
2023-05-05T13:34:06.334Z,35.21
2023-05-05T13:35:06.068Z,35.18
2023-05-05T13:36:05.886Z,35.17
2023-05-05T13:37:05.886Z,35.18
2023-05-05T13:38:06.022Z,35.21
2023-05-05T13:39:05.874Z,35.19
2023-05-05T13:40:05.933Z,35.21
2023-05-05T13:41:05.858Z,35.22
2023-05-05T13:42:05.837Z,35.21
2023-05-05T13:43:05.850Z,35.26
2023-05-05T13:44:05.843Z,35.24
2023-05-05T13:45:05.871Z,35.26
2023-05-05T13:46:18.678Z,35.25
2023-05-05T13:47:05.894Z,35.29
2023-05-05T13:48:05.872Z,35.28
2023-05-05T13:49:05.848Z,35.25
2023-05-05T13:50:05.864Z,35.25
2023-05-05T13:51:05.797Z,35.27
2023-05-05T13:52:05.786Z,35.29
2023-05-05T13:53:05.773Z,35.27
2023-05-05T13:54:05.918Z,35.29
2023-05-05T13:55:05.886Z,35.32
2023-05-05T13:56:05.759Z,35.29
2023-05-05T13:57:06.344Z,35.32
2023-05-05T13:58:05.736Z,35.34
2023-05-05T13:59:05.726Z,35.31
2023-05-05T14:00:05.762Z,35.35
2023-05-05T14:01:06.344Z,35.33
2023-05-05T14:02:05.733Z,35.35
2023-05-05T14:03:05.768Z,35.37
2023-05-05T14:04:06.245Z,35.34
2023-05-05T14:05:05.769Z,35.37
2023-05-05T14:06:05.671Z,35.39
2023-05-05T14:07:05.670Z,35.39
2023-05-05T14:08:05.653Z,35.41
2023-05-05T14:09:06.237Z,35.40
2023-05-05T14:10:05.790Z,35.43
2023-05-05T14:11:05.627Z,35.42
2023-05-05T14:12:05.622Z,35.44
2023-05-05T14:13:05.738Z,35.44
2023-05-05T14:14:05.851Z,35.45
2023-05-05T14:15:05.696Z,35.44
2023-05-05T14:16:05.618Z,35.45
2023-05-05T14:17:05.643Z,35.48
2023-05-05T14:18:05.648Z,35.48
2023-05-05T14:19:05.598Z,35.48
2023-05-05T14:20:05.640Z,35.50
2023-05-05T14:21:05.572Z,35.49
2023-05-05T14:22:05.573Z,35.52
2023-05-05T14:23:05.566Z,35.52
2023-05-05T14:24:05.559Z,35.54
2023-05-05T14:25:05.596Z,35.55
2023-05-05T14:26:05.684Z,35.57
2023-05-05T14:27:05.626Z,35.57
2023-05-05T14:28:05.675Z,35.56
2023-05-05T14:29:05.721Z,35.56
2023-05-05T14:30:05.810Z,35.58
2023-05-05T14:31:05.789Z,35.59
2023-05-05T14:32:05.892Z,35.59
2023-05-05T14:33:05.937Z,35.60
2023-05-05T14:34:06.356Z,35.62
2023-05-05T14:35:06.033Z,35.62
2023-05-05T14:36:05.908Z,35.62
2023-05-05T14:37:05.953Z,35.64
2023-05-05T14:38:06.043Z,35.63
2023-05-05T14:39:06.360Z,35.65
2023-05-05T14:40:06.181Z,35.65
2023-05-05T14:41:06.095Z,35.65
2023-05-05T14:42:06.266Z,35.66
2023-05-05T14:43:06.189Z,35.67
2023-05-05T14:44:06.215Z,35.67
2023-05-05T14:45:06.474Z,35.71
2023-05-05T14:46:06.606Z,35.65
2023-05-05T14:47:06.295Z,35.70
2023-05-05T14:48:06.312Z,35.72
2023-05-05T14:49:06.355Z,35.71
2023-05-05T14:50:06.408Z,35.72
2023-05-05T14:51:06.441Z,35.76
2023-05-05T14:52:06.476Z,35.75
2023-05-05T14:53:06.543Z,35.77
2023-05-05T14:54:14.315Z,35.78
2023-05-05T14:55:06.704Z,35.79
2023-05-05T14:56:06.581Z,35.81
2023-05-05T14:57:06.868Z,35.82
2023-05-05T14:58:06.567Z,35.81
2023-05-05T14:59:06.542Z,35.82
2023-05-05T15:00:06.547Z,35.86
2023-05-05T15:01:06.543Z,35.84
2023-05-05T15:02:06.521Z,35.89
2023-05-05T15:03:06.577Z,35.89
2023-05-05T15:04:06.501Z,35.91
2023-05-05T15:05:06.574Z,35.90
2023-05-05T15:06:06.913Z,35.93
2023-05-05T15:07:06.483Z,35.93
2023-05-05T15:08:07.370Z,35.92
2023-05-05T15:09:06.463Z,35.93
2023-05-05T15:10:06.446Z,35.93
2023-05-05T15:11:06.498Z,35.91
2023-05-05T15:12:06.541Z,35.94
2023-05-05T15:13:06.613Z,35.93
2023-05-05T15:14:06.798Z,35.89
2023-05-05T15:15:06.813Z,35.88
2023-05-05T15:16:06.790Z,35.88
2023-05-05T15:17:06.812Z,35.87
2023-05-05T15:18:06.873Z,35.94
2023-05-05T15:19:06.935Z,35.90
2023-05-05T15:20:07.014Z,35.96
2023-05-05T15:21:07.022Z,35.93
2023-05-05T15:22:07.086Z,35.92
2023-05-05T15:23:07.136Z,35.89
2023-05-05T15:24:07.203Z,35.90
2023-05-05T15:25:07.541Z,35.88
2023-05-05T15:26:07.312Z,35.82
2023-05-05T15:27:07.381Z,35.85
2023-05-05T15:28:07.445Z,35.94
2023-05-05T15:29:07.485Z,35.97
2023-05-05T15:30:07.570Z,35.86
2023-05-05T15:31:07.602Z,35.91
2023-05-05T15:32:07.736Z,35.96
2023-05-05T15:33:07.728Z,35.92
2023-05-05T15:34:07.785Z,35.90
2023-05-05T15:35:08.022Z,35.90
2023-05-05T15:36:07.874Z,35.95
2023-05-05T15:37:07.937Z,35.92
2023-05-05T15:38:08.002Z,35.93
2023-05-05T15:39:08.064Z,35.91
2023-05-05T15:40:08.121Z,35.91
2023-05-05T15:41:08.191Z,35.91
2023-05-05T15:42:08.247Z,35.84
2023-05-05T15:43:08.306Z,35.87
2023-05-05T15:44:08.373Z,35.90
2023-05-05T15:45:08.602Z,35.92
2023-05-05T15:46:08.577Z,35.95
2023-05-05T15:47:08.749Z,35.89
2023-05-05T15:48:08.632Z,35.86
2023-05-05T15:49:08.662Z,35.85
2023-05-05T15:50:08.715Z,35.80
2023-05-05T15:51:08.768Z,35.81
2023-05-05T15:52:08.838Z,35.86
2023-05-05T15:53:08.885Z,35.86
2023-05-05T15:54:08.971Z,35.81
2023-05-05T15:55:09.166Z,35.86
2023-05-05T15:56:09.069Z,35.85
2023-05-05T15:57:09.131Z,35.79
2023-05-05T15:58:09.183Z,35.87
2023-05-05T15:59:09.246Z,35.88
2023-05-05T16:00:09.308Z,35.74
2023-05-05T16:01:09.406Z,35.79
2023-05-05T16:02:09.585Z,35.79
2023-05-05T16:03:09.586Z,35.75
2023-05-05T16:04:09.561Z,35.76
2023-05-05T16:05:09.936Z,35.79
2023-05-05T16:06:09.670Z,35.76
2023-05-05T16:07:09.725Z,35.70
2023-05-05T16:08:09.815Z,35.76
2023-05-05T16:09:09.849Z,35.67
2023-05-05T16:10:09.890Z,35.75
2023-05-05T16:11:09.961Z,35.73
2023-05-05T16:12:10.018Z,35.72
2023-05-05T16:13:10.146Z,35.72
2023-05-05T16:14:10.150Z,35.74
2023-05-05T16:15:10.522Z,35.76
2023-05-05T16:16:10.273Z,35.76
2023-05-05T16:17:10.320Z,35.78
2023-05-05T16:18:10.413Z,35.76
2023-05-05T16:19:10.437Z,35.83
2023-05-05T16:20:10.508Z,35.80
2023-05-05T16:21:10.561Z,35.77
2023-05-05T16:22:10.615Z,35.84
2023-05-05T16:23:10.666Z,35.83
2023-05-05T16:24:10.731Z,35.87
2023-05-05T16:25:10.944Z,35.79
2023-05-05T16:26:10.830Z,35.79
2023-05-05T16:27:10.883Z,35.81
2023-05-05T16:28:10.968Z,35.83
2023-05-05T16:29:11.000Z,35.78
2023-05-05T16:30:11.327Z,35.77
2023-05-05T16:31:11.330Z,35.72
2023-05-05T16:32:11.148Z,35.77
2023-05-05T16:33:11.286Z,35.73
2023-05-05T16:34:11.302Z,35.74
2023-05-05T16:35:11.356Z,35.80
2023-05-05T16:36:11.363Z,35.82
2023-05-05T16:37:11.417Z,35.81
2023-05-05T16:38:11.459Z,35.75
2023-05-05T16:39:11.520Z,35.79
2023-05-05T16:40:11.570Z,35.72
2023-05-05T16:41:11.714Z,35.67
2023-05-05T16:42:11.687Z,35.73
2023-05-05T16:43:11.743Z,35.76
2023-05-05T16:44:11.792Z,35.73
2023-05-05T16:45:11.945Z,35.72
2023-05-05T16:46:11.909Z,35.78
2023-05-05T16:47:11.950Z,35.77
2023-05-05T16:48:12.007Z,35.79
2023-05-05T16:49:12.083Z,35.71
2023-05-05T16:50:12.258Z,35.72
2023-05-05T16:51:12.161Z,35.72
2023-05-05T16:52:12.227Z,35.71
2023-05-05T16:53:12.277Z,35.72
2023-05-05T16:54:12.350Z,35.71
2023-05-05T16:55:12.391Z,35.76
2023-05-05T16:56:12.452Z,35.73
2023-05-05T16:57:12.491Z,35.69
2023-05-05T16:58:12.553Z,35.77
2023-05-05T16:59:12.598Z,35.72
2023-05-05T17:00:13.025Z,35.78
2023-05-05T17:01:13.028Z,35.85
2023-05-05T17:02:13.011Z,35.75
2023-05-05T17:03:13.011Z,35.73
2023-05-05T17:04:13.012Z,35.75
2023-05-05T17:05:13.321Z,35.78
2023-05-05T17:06:13.136Z,35.73
2023-05-05T17:07:13.081Z,35.70
2023-05-05T17:08:13.133Z,35.74
2023-05-05T17:09:13.188Z,35.72
2023-05-05T17:10:13.240Z,35.77
2023-05-05T17:11:13.297Z,35.76
2023-05-05T17:12:13.354Z,35.76
2023-05-05T17:13:13.429Z,35.70
2023-05-05T17:14:13.475Z,35.74
2023-05-05T17:15:13.514Z,35.67
2023-05-05T17:16:13.613Z,35.66
2023-05-05T17:17:13.976Z,35.66
2023-05-05T17:18:14.029Z,35.68
2023-05-05T17:19:14.024Z,35.67
2023-05-05T17:20:14.027Z,35.69
2023-05-05T17:21:14.027Z,35.68
2023-05-05T17:22:14.122Z,35.67
2023-05-05T17:23:14.038Z,35.67
2023-05-05T17:24:14.041Z,35.70
2023-05-05T17:25:14.097Z,35.74
2023-05-05T17:26:14.136Z,35.75
2023-05-05T17:27:14.211Z,35.75
2023-05-05T17:28:14.254Z,35.79
2023-05-05T17:29:14.324Z,35.74
2023-05-05T17:30:14.367Z,35.74
2023-05-05T17:31:14.545Z,35.78
2023-05-05T17:32:14.512Z,35.77
2023-05-05T17:33:14.572Z,35.75
2023-05-05T17:34:14.610Z,35.77
2023-05-05T17:35:14.740Z,35.73
2023-05-05T17:36:14.725Z,35.79
2023-05-05T17:37:14.788Z,35.80
2023-05-05T17:38:14.954Z,35.77
2023-05-05T17:39:14.918Z,35.82
2023-05-05T17:40:14.962Z,35.81
2023-05-05T17:41:15.767Z,35.83
2023-05-05T17:42:15.819Z,35.81
2023-05-05T17:43:15.683Z,35.75
2023-05-05T17:44:16.248Z,35.76
2023-05-05T17:45:15.575Z,35.79
2023-05-05T17:46:15.859Z,35.81
2023-05-05T17:47:15.723Z,35.80
2023-05-05T17:48:15.411Z,35.79
2023-05-05T17:49:15.472Z,35.74
2023-05-05T17:50:15.523Z,35.89
2023-05-05T17:51:15.621Z,35.92
2023-05-05T17:52:15.674Z,35.91
2023-05-05T17:53:15.717Z,35.93
2023-05-05T17:54:15.865Z,35.87
2023-05-05T17:55:15.829Z,35.92
2023-05-05T17:56:15.868Z,35.97
2023-05-05T17:57:15.910Z,36.00
2023-05-05T17:58:15.978Z,36.03
2023-05-05T17:59:16.030Z,36.01
2023-05-05T18:00:16.078Z,36.04
2023-05-05T18:01:16.140Z,35.96
2023-05-05T18:02:16.211Z,35.96
2023-05-05T18:03:16.381Z,36.06
2023-05-05T18:04:16.297Z,36.01
2023-05-05T18:05:16.352Z,35.95
2023-05-05T18:06:16.406Z,36.01
2023-05-05T18:07:16.480Z,36.05
2023-05-05T18:08:16.526Z,36.01
2023-05-05T18:09:16.573Z,35.95
2023-05-05T18:10:16.754Z,36.04
2023-05-05T18:11:16.660Z,35.95
2023-05-05T18:12:16.704Z,35.95
2023-05-05T18:13:16.798Z,36.09
2023-05-05T18:14:18.676Z,36.03
2023-05-05T18:15:16.804Z,36.01
2023-05-05T18:16:16.873Z,36.12
2023-05-05T18:17:16.796Z,36.11
2023-05-05T18:18:16.802Z,36.11
2023-05-05T18:19:16.771Z,36.18
2023-05-05T18:20:16.769Z,36.17
2023-05-05T18:21:16.757Z,36.18